Albion, Idaho
Current Conditions -  °F | °C
As of 5:53 AM on Friday 31 Oct 2014 (Local Time) from KBYI Reporting Station
Clear Clear  
Wind Chill: 42°   Ceiling: Unl
Heat Index: 42°   Visibility: 10mi
Dew Point: 30°   Wind: 3mph
Humidity: 62%   Direction: 20°NNE
Pressure: 29.92"   Gusts: NA
Location:  42.41°N, 113.58°W
Report Text: KBYI 311153Z AUTO 02003KT 10SM CLR 06/M01 A2992 RMK AO2 SLP110 T00561011 10083 20044 56014
Loading
Personal Weather Stations






























Interactive Weather Map
Tropical Storm Tracking
New forecast layout! Learn more

10-Day Weather Forecast

Advertisements
Track Severe Weather on mobile